sensor_id;sensor_type;location;lat;lon;timestamp;temperature;humidity
11136;DHT22;5622;50.840;4.948;2024-02-14T00:00:20;9.40;99.90
11136;DHT22;5622;50.840;4.948;2024-02-14T00:02:50;9.40;99.90
11136;DHT22;5622;50.840;4.948;2024-02-14T00:05:17;9.40;99.90
11136;DHT22;5622;50.840;4.948;2024-02-14T00:07:45;9.40;99.90
11136;DHT22;5622;50.840;4.948;2024-02-14T00:10:12;9.40;99.90
11136;DHT22;5622;50.840;4.948;2024-02-14T00:12:39;9.40;99.90
11136;DHT22;5622;50.840;4.948;2024-02-14T00:15:08;9.40;99.90
11136;DHT22;5622;50.840;4.948;2024-02-14T00:17:37;9.50;99.90
11136;DHT22;5622;50.840;4.948;2024-02-14T00:20:05;9.50;99.90
11136;DHT22;5622;50.840;4.948;2024-02-14T00:22:33;9.50;99.90
11136;DHT22;5622;50.840;4.948;2024-02-14T00:25:00;9.50;99.90
11136;DHT22;5622;50.840;4.948;2024-02-14T00:27:27;9.50;99.90
11136;DHT22;5622;50.840;4.948;2024-02-14T00:29:55;9.50;99.90
11136;DHT22;5622;50.840;4.948;2024-02-14T00:32:23;9.50;99.90
11136;DHT22;5622;50.840;4.948;2024-02-14T00:34:51;9.50;99.90
11136;DHT22;5622;50.840;4.948;2024-02-14T00:37:19;9.50;99.90
11136;DHT22;5622;50.840;4.948;2024-02-14T00:39:47;9.60;99.90
11136;DHT22;5622;50.840;4.948;2024-02-14T00:42:15;9.50;99.90
11136;DHT22;5622;50.840;4.948;2024-02-14T00:44:43;8.90;99.90
11136;DHT22;5622;50.840;4.948;2024-02-14T00:47:10;9.50;99.90
11136;DHT22;5622;50.840;4.948;2024-02-14T00:49:37;9.50;99.90
11136;DHT22;5622;50.840;4.948;2024-02-14T00:52:08;9.50;99.90
11136;DHT22;5622;50.840;4.948;2024-02-14T00:54:35;9.50;99.90
11136;DHT22;5622;50.840;4.948;2024-02-14T00:57:03;9.60;99.90
11136;DHT22;5622;50.840;4.948;2024-02-14T00:59:30;9.60;99.90
11136;DHT22;5622;50.840;4.948;2024-02-14T01:01:58;9.60;99.90
11136;DHT22;5622;50.840;4.948;2024-02-14T01:04:25;9.60;99.90
11136;DHT22;5622;50.840;4.948;2024-02-14T01:06:52;9.60;99.90
11136;DHT22;5622;50.840;4.948;2024-02-14T01:09:22;9.50;99.90
11136;DHT22;5622;50.840;4.948;2024-02-14T01:11:50;9.50;99.90
11136;DHT22;5622;50.840;4.948;2024-02-14T01:14:17;9.60;99.90
11136;DHT22;5622;50.840;4.948;2024-02-14T01:16:44;9.60;99.90
11136;DHT22;5622;50.840;4.948;2024-02-14T01:19:12;9.50;99.90
11136;DHT22;5622;50.840;4.948;2024-02-14T01:21:39;9.60;99.90
11136;DHT22;5622;50.840;4.948;2024-02-14T01:24:07;9.50;99.90
11136;DHT22;5622;50.840;4.948;2024-02-14T01:26:36;9.60;99.90
11136;DHT22;5622;50.840;4.948;2024-02-14T01:29:03;9.50;99.90
11136;DHT22;5622;50.840;4.948;2024-02-14T01:31:31;9.60;99.90
11136;DHT22;5622;50.840;4.948;2024-02-14T01:34:00;9.60;99.90
11136;DHT22;5622;50.840;4.948;2024-02-14T01:36:28;9.70;99.90
11136;DHT22;5622;50.840;4.948;2024-02-14T01:38:57;9.60;99.90
11136;DHT22;5622;50.840;4.948;2024-02-14T01:41:24;9.70;99.90
11136;DHT22;5622;50.840;4.948;2024-02-14T01:43:52;9.60;99.90
11136;DHT22;5622;50.840;4.948;2024-02-14T01:46:20;9.70;99.90
11136;DHT22;5622;50.840;4.948;2024-02-14T01:48:47;9.70;99.90
11136;DHT22;5622;50.840;4.948;2024-02-14T01:51:16;9.00;99.90
11136;DHT22;5622;50.840;4.948;2024-02-14T01:53:45;9.70;99.90
11136;DHT22;5622;50.840;4.948;2024-02-14T01:56:12;9.70;99.90
11136;DHT22;5622;50.840;4.948;2024-02-14T01:58:42;9.70;99.90
11136;DHT22;5622;50.840;4.948;2024-02-14T02:01:11;9.60;99.90
11136;DHT22;5622;50.840;4.948;2024-02-14T02:03:38;9.60;99.90
11136;DHT22;5622;50.840;4.948;2024-02-14T02:06:06;9.60;99.90
11136;DHT22;5622;50.840;4.948;2024-02-14T02:08:33;9.60;99.90
11136;DHT22;5622;50.840;4.948;2024-02-14T02:11:01;9.60;99.90
11136;DHT22;5622;50.840;4.948;2024-02-14T02:13:30;9.60;99.90
11136;DHT22;5622;50.840;4.948;2024-02-14T02:15:58;9.60;99.90
11136;DHT22;5622;50.840;4.948;2024-02-14T02:18:28;9.60;99.90
11136;DHT22;5622;50.840;4.948;2024-02-14T02:20:56;9.60;99.90
11136;DHT22;5622;50.840;4.948;2024-02-14T02:23:25;9.60;99.90
11136;DHT22;5622;50.840;4.948;2024-02-14T02:25:52;9.50;99.90
11136;DHT22;5622;50.840;4.948;2024-02-14T02:28:19;9.60;99.90
11136;DHT22;5622;50.840;4.948;2024-02-14T02:30:47;9.50;99.90
11136;DHT22;5622;50.840;4.948;2024-02-14T02:33:14;9.60;99.90
11136;DHT22;5622;50.840;4.948;2024-02-14T02:35:42;9.50;99.90
11136;DHT22;5622;50.840;4.948;2024-02-14T02:38:10;9.50;99.90
11136;DHT22;5622;50.840;4.948;2024-02-14T02:40:39;9.60;99.90
11136;DHT22;5622;50.840;4.948;2024-02-14T02:43:06;9.40;99.90
11136;DHT22;5622;50.840;4.948;2024-02-14T02:45:33;9.50;99.90
11136;DHT22;5622;50.840;4.948;2024-02-14T02:48:02;9.50;99.90
11136;DHT22;5622;50.840;4.948;2024-02-14T02:50:29;9.50;99.90
11136;DHT22;5622;50.840;4.948;2024-02-14T02:52:58;9.50;99.90
11136;DHT22;5622;50.840;4.948;2024-02-14T02:55:25;9.60;99.90
11136;DHT22;5622;50.840;4.948;2024-02-14T02:57:53;9.60;99.90
11136;DHT22;5622;50.840;4.948;2024-02-14T03:00:21;9.50;99.90
11136;DHT22;5622;50.840;4.948;2024-02-14T03:02:48;9.60;99.90
11136;DHT22;5622;50.840;4.948;2024-02-14T03:05:15;9.60;99.90
11136;DHT22;5622;50.840;4.948;2024-02-14T03:07:44;9.60;99.90
11136;DHT22;5622;50.840;4.948;2024-02-14T03:10:13;9.60;99.90
11136;DHT22;5622;50.840;4.948;2024-02-14T03:12:45;9.60;99.90
11136;DHT22;5622;50.840;4.948;2024-02-14T03:15:14;9.60;99.90
11136;DHT22;5622;50.840;4.948;2024-02-14T03:17:41;9.60;99.90
11136;DHT22;5622;50.840;4.948;2024-02-14T03:20:10;9.60;99.90
11136;DHT22;5622;50.840;4.948;2024-02-14T03:22:39;9.60;99.90
11136;DHT22;5622;50.840;4.948;2024-02-14T03:25:12;9.60;99.90
11136;DHT22;5622;50.840;4.948;2024-02-14T03:27:40;9.60;99.90
11136;DHT22;5622;50.840;4.948;2024-02-14T03:30:08;9.60;99.90
11136;DHT22;5622;50.840;4.948;2024-02-14T03:32:37;9.60;99.90
11136;DHT22;5622;50.840;4.948;2024-02-14T03:35:05;9.60;99.90
11136;DHT22;5622;50.840;4.948;2024-02-14T03:37:33;9.60;99.90
11136;DHT22;5622;50.840;4.948;2024-02-14T03:40:00;9.60;99.90
11136;DHT22;5622;50.840;4.948;2024-02-14T03:42:29;9.80;99.90
11136;DHT22;5622;50.840;4.948;2024-02-14T03:44:56;9.70;99.90
11136;DHT22;5622;50.840;4.948;2024-02-14T03:47:28;9.70;99.90
11136;DHT22;5622;50.840;4.948;2024-02-14T03:49:58;9.70;99.90
11136;DHT22;5622;50.840;4.948;2024-02-14T03:52:25;9.70;99.90
11136;DHT22;5622;50.840;4.948;2024-02-14T03:54:54;9.80;99.90
11136;DHT22;5622;50.840;4.948;2024-02-14T03:57:21;10.20;99.90
11136;DHT22;5622;50.840;4.948;2024-02-14T03:59:51;9.70;99.90
11136;DHT22;5622;50.840;4.948;2024-02-14T04:02:18;9.70;99.90
11136;DHT22;5622;50.840;4.948;2024-02-14T04:04:45;9.70;99.90
11136;DHT22;5622;50.840;4.948;2024-02-14T04:07:14;9.70;99.90
11136;DHT22;5622;50.840;4.948;2024-02-14T04:09:41;9.70;99.90
11136;DHT22;5622;50.840;4.948;2024-02-14T04:12:09;9.60;99.90
11136;DHT22;5622;50.840;4.948;2024-02-14T04:14:36;9.70;99.90
11136;DHT22;5622;50.840;4.948;2024-02-14T04:17:04;9.70;99.90
11136;DHT22;5622;50.840;4.948;2024-02-14T04:19:33;9.70;99.90
11136;DHT22;5622;50.840;4.948;2024-02-14T04:22:00;9.70;99.90
11136;DHT22;5622;50.840;4.948;2024-02-14T04:24:29;9.70;99.90
11136;DHT22;5622;50.840;4.948;2024-02-14T04:26:58;9.70;99.90
11136;DHT22;5622;50.840;4.948;2024-02-14T04:29:27;9.40;99.90
11136;DHT22;5622;50.840;4.948;2024-02-14T04:31:56;9.70;99.90
11136;DHT22;5622;50.840;4.948;2024-02-14T04:34:23;9.70;99.90
11136;DHT22;5622;50.840;4.948;2024-02-14T04:36:50;9.70;99.90
11136;DHT22;5622;50.840;4.948;2024-02-14T04:39:17;9.70;99.90
11136;DHT22;5622;50.840;4.948;2024-02-14T04:41:46;9.70;99.90
11136;DHT22;5622;50.840;4.948;2024-02-14T04:44:13;9.80;99.90
11136;DHT22;5622;50.840;4.948;2024-02-14T04:46:41;9.70;99.90
11136;DHT22;5622;50.840;4.948;2024-02-14T04:49:10;9.80;99.90
11136;DHT22;5622;50.840;4.948;2024-02-14T04:51:38;9.70;99.90
11136;DHT22;5622;50.840;4.948;2024-02-14T04:54:05;9.80;99.90
11136;DHT22;5622;50.840;4.948;2024-02-14T04:56:34;9.80;99.90
11136;DHT22;5622;50.840;4.948;2024-02-14T04:59:02;9.80;99.90
11136;DHT22;5622;50.840;4.948;2024-02-14T05:01:30;9.80;99.90
11136;DHT22;5622;50.840;4.948;2024-02-14T05:03:58;9.80;99.90
11136;DHT22;5622;50.840;4.948;2024-02-14T05:06:25;9.80;99.90
11136;DHT22;5622;50.840;4.948;2024-02-14T05:08:52;9.80;99.90
11136;DHT22;5622;50.840;4.948;2024-02-14T05:11:19;9.70;99.90
11136;DHT22;5622;50.840;4.948;2024-02-14T05:13:47;9.80;99.90
11136;DHT22;5622;50.840;4.948;2024-02-14T05:16:19;9.80;99.90
11136;DHT22;5622;50.840;4.948;2024-02-14T05:18:46;9.70;99.90
11136;DHT22;5622;50.840;4.948;2024-02-14T05:21:13;9.80;99.90
11136;DHT22;5622;50.840;4.948;2024-02-14T05:23:40;9.80;99.90
11136;DHT22;5622;50.840;4.948;2024-02-14T05:26:09;9.80;99.90
11136;DHT22;5622;50.840;4.948;2024-02-14T05:28:36;9.80;99.90
11136;DHT22;5622;50.840;4.948;2024-02-14T05:31:05;9.80;99.90
11136;DHT22;5622;50.840;4.948;2024-02-14T05:33:34;9.80;99.90
11136;DHT22;5622;50.840;4.948;2024-02-14T05:36:02;9.80;99.90
11136;DHT22;5622;50.840;4.948;2024-02-14T05:38:31;9.80;99.90
11136;DHT22;5622;50.840;4.948;2024-02-14T05:40:59;9.90;99.90
11136;DHT22;5622;50.840;4.948;2024-02-14T05:43:26;9.90;99.90
11136;DHT22;5622;50.840;4.948;2024-02-14T05:45:54;9.90;99.90
11136;DHT22;5622;50.840;4.948;2024-02-14T05:48:21;9.90;99.90
11136;DHT22;5622;50.840;4.948;2024-02-14T05:50:50;9.90;99.90
11136;DHT22;5622;50.840;4.948;2024-02-14T05:53:18;9.90;99.90
11136;DHT22;5622;50.840;4.948;2024-02-14T05:55:45;9.90;99.90
11136;DHT22;5622;50.840;4.948;2024-02-14T05:58:13;9.90;99.90
11136;DHT22;5622;50.840;4.948;2024-02-14T06:00:40;9.90;99.90
11136;DHT22;5622;50.840;4.948;2024-02-14T06:03:07;9.90;99.90
11136;DHT22;5622;50.840;4.948;2024-02-14T06:05:35;9.90;99.90
11136;DHT22;5622;50.840;4.948;2024-02-14T06:08:04;9.90;99.90
11136;DHT22;5622;50.840;4.948;2024-02-14T06:10:31;10.00;99.90
11136;DHT22;5622;50.840;4.948;2024-02-14T06:12:59;9.90;99.90
11136;DHT22;5622;50.840;4.948;2024-02-14T06:15:27;9.90;99.90
11136;DHT22;5622;50.840;4.948;2024-02-14T06:17:54;9.90;99.90
11136;DHT22;5622;50.840;4.948;2024-02-14T06:20:21;9.90;99.90
11136;DHT22;5622;50.840;4.948;2024-02-14T06:22:48;9.90;99.90
11136;DHT22;5622;50.840;4.948;2024-02-14T06:25:20;10.00;99.90
11136;DHT22;5622;50.840;4.948;2024-02-14T06:27:47;9.90;99.90
11136;DHT22;5622;50.840;4.948;2024-02-14T06:30:14;10.00;99.90
11136;DHT22;5622;50.840;4.948;2024-02-14T06:32:44;10.00;99.90
11136;DHT22;5622;50.840;4.948;2024-02-14T06:35:11;10.00;99.90
11136;DHT22;5622;50.840;4.948;2024-02-14T06:37:40;10.00;99.90
11136;DHT22;5622;50.840;4.948;2024-02-14T06:40:08;10.00;99.90
11136;DHT22;5622;50.840;4.948;2024-02-14T06:42:37;10.00;99.90
11136;DHT22;5622;50.840;4.948;2024-02-14T06:45:06;10.00;99.90
11136;DHT22;5622;50.840;4.948;2024-02-14T06:47:34;10.00;99.90
11136;DHT22;5622;50.840;4.948;2024-02-14T06:50:01;10.00;99.90
11136;DHT22;5622;50.840;4.948;2024-02-14T06:52:28;10.00;99.90
11136;DHT22;5622;50.840;4.948;2024-02-14T06:54:55;10.10;99.90
11136;DHT22;5622;50.840;4.948;2024-02-14T06:57:22;10.00;99.90
11136;DHT22;5622;50.840;4.948;2024-02-14T06:59:52;10.10;99.90
11136;DHT22;5622;50.840;4.948;2024-02-14T07:02:19;10.10;99.90
11136;DHT22;5622;50.840;4.948;2024-02-14T07:04:46;10.20;99.90
11136;DHT22;5622;50.840;4.948;2024-02-14T07:07:14;10.20;99.90
11136;DHT22;5622;50.840;4.948;2024-02-14T07:09:43;10.20;99.90
11136;DHT22;5622;50.840;4.948;2024-02-14T07:12:10;10.30;99.90
11136;DHT22;5622;50.840;4.948;2024-02-14T07:14:37;10.30;99.90
11136;DHT22;5622;50.840;4.948;2024-02-14T07:17:06;10.30;99.90
11136;DHT22;5622;50.840;4.948;2024-02-14T07:19:33;10.30;99.90
11136;DHT22;5622;50.840;4.948;2024-02-14T07:22:01;9.60;99.90
11136;DHT22;5622;50.840;4.948;2024-02-14T07:24:28;10.30;99.90
11136;DHT22;5622;50.840;4.948;2024-02-14T07:26:55;10.30;99.90
11136;DHT22;5622;50.840;4.948;2024-02-14T07:29:23;10.40;99.90
11136;DHT22;5622;50.840;4.948;2024-02-14T07:31:51;10.40;99.90
11136;DHT22;5622;50.840;4.948;2024-02-14T07:34:20;10.40;99.90
11136;DHT22;5622;50.840;4.948;2024-02-14T07:36:47;10.40;99.90
11136;DHT22;5622;50.840;4.948;2024-02-14T07:39:14;10.40;99.90
11136;DHT22;5622;50.840;4.948;2024-02-14T07:41:41;10.60;99.90
11136;DHT22;5622;50.840;4.948;2024-02-14T07:44:08;10.40;99.90
11136;DHT22;5622;50.840;4.948;2024-02-14T07:46:35;10.40;99.90
11136;DHT22;5622;50.840;4.948;2024-02-14T07:49:02;10.40;99.90
11136;DHT22;5622;50.840;4.948;2024-02-14T07:51:31;10.50;99.90
11136;DHT22;5622;50.840;4.948;2024-02-14T07:54:02;10.50;99.90
11136;DHT22;5622;50.840;4.948;2024-02-14T07:56:29;10.50;99.90
11136;DHT22;5622;50.840;4.948;2024-02-14T07:58:58;10.60;99.90
11136;DHT22;5622;50.840;4.948;2024-02-14T08:01:25;10.50;99.90
11136;DHT22;5622;50.840;4.948;2024-02-14T08:03:53;10.70;99.90
11136;DHT22;5622;50.840;4.948;2024-02-14T08:06:21;10.70;99.90
11136;DHT22;5622;50.840;4.948;2024-02-14T08:08:49;10.60;99.90
11136;DHT22;5622;50.840;4.948;2024-02-14T08:11:22;10.60;99.90
11136;DHT22;5622;50.840;4.948;2024-02-14T08:13:49;10.60;99.90
11136;DHT22;5622;50.840;4.948;2024-02-14T08:16:17;10.70;99.90
11136;DHT22;5622;50.840;4.948;2024-02-14T08:18:44;10.70;99.90
11136;DHT22;5622;50.840;4.948;2024-02-14T08:21:11;10.70;99.90
11136;DHT22;5622;50.840;4.948;2024-02-14T08:23:38;10.70;99.90
11136;DHT22;5622;50.840;4.948;2024-02-14T08:26:10;10.70;99.90
11136;DHT22;5622;50.840;4.948;2024-02-14T08:28:37;10.30;99.90
11136;DHT22;5622;50.840;4.948;2024-02-14T08:31:10;10.70;99.90
11136;DHT22;5622;50.840;4.948;2024-02-14T08:33:37;10.80;99.90
11136;DHT22;5622;50.840;4.948;2024-02-14T08:36:05;10.80;99.90
11136;DHT22;5622;50.840;4.948;2024-02-14T08:38:32;10.90;99.90
11136;DHT22;5622;50.840;4.948;2024-02-14T08:41:02;10.90;99.90
11136;DHT22;5622;50.840;4.948;2024-02-14T08:43:31;10.90;99.90
11136;DHT22;5622;50.840;4.948;2024-02-14T08:45:59;10.70;99.90
11136;DHT22;5622;50.840;4.948;2024-02-14T08:48:26;10.90;99.90
11136;DHT22;5622;50.840;4.948;2024-02-14T08:50:55;10.90;99.90
11136;DHT22;5622;50.840;4.948;2024-02-14T08:53:22;10.90;99.90
11136;DHT22;5622;50.840;4.948;2024-02-14T08:55:49;10.80;99.90
11136;DHT22;5622;50.840;4.948;2024-02-14T08:58:17;10.80;99.90
11136;DHT22;5622;50.840;4.948;2024-02-14T09:00:45;10.80;99.90
11136;DHT22;5622;50.840;4.948;2024-02-14T09:03:13;10.80;99.90
11136;DHT22;5622;50.840;4.948;2024-02-14T09:05:40;10.80;99.90
11136;DHT22;5622;50.840;4.948;2024-02-14T09:08:07;10.80;99.90
11136;DHT22;5622;50.840;4.948;2024-02-14T09:10:34;10.70;99.90
11136;DHT22;5622;50.840;4.948;2024-02-14T09:13:01;10.20;99.90
11136;DHT22;5622;50.840;4.948;2024-02-14T09:15:29;10.70;99.90
11136;DHT22;5622;50.840;4.948;2024-02-14T09:18:00;10.70;99.90
11136;DHT22;5622;50.840;4.948;2024-02-14T09:20:28;10.70;99.90
11136;DHT22;5622;50.840;4.948;2024-02-14T09:22:56;10.70;99.90
11136;DHT22;5622;50.840;4.948;2024-02-14T09:25:24;10.80;99.90
11136;DHT22;5622;50.840;4.948;2024-02-14T09:27:51;10.70;99.90
11136;DHT22;5622;50.840;4.948;2024-02-14T09:30:19;10.80;99.90
11136;DHT22;5622;50.840;4.948;2024-02-14T09:32:46;10.80;99.90
11136;DHT22;5622;50.840;4.948;2024-02-14T09:35:14;10.80;99.90
11136;DHT22;5622;50.840;4.948;2024-02-14T09:37:41;10.80;99.90
11136;DHT22;5622;50.840;4.948;2024-02-14T09:40:09;10.80;99.90
11136;DHT22;5622;50.840;4.948;2024-02-14T09:42:41;10.80;99.90
11136;DHT22;5622;50.840;4.948;2024-02-14T09:45:10;10.80;99.90
11136;DHT22;5622;50.840;4.948;2024-02-14T09:47:40;10.80;99.90
11136;DHT22;5622;50.840;4.948;2024-02-14T09:50:08;10.90;99.90
11136;DHT22;5622;50.840;4.948;2024-02-14T09:52:38;10.90;99.90
11136;DHT22;5622;50.840;4.948;2024-02-14T09:55:06;10.90;99.90
11136;DHT22;5622;50.840;4.948;2024-02-14T09:57:33;10.90;99.90
11136;DHT22;5622;50.840;4.948;2024-02-14T10:00:01;11.00;99.90
11136;DHT22;5622;50.840;4.948;2024-02-14T10:02:32;11.00;99.90
11136;DHT22;5622;50.840;4.948;2024-02-14T10:05:02;11.00;99.90
11136;DHT22;5622;50.840;4.948;2024-02-14T10:07:29;11.10;99.90
11136;DHT22;5622;50.840;4.948;2024-02-14T10:10:06;11.10;99.90
11136;DHT22;5622;50.840;4.948;2024-02-14T10:12:33;11.10;99.90
11136;DHT22;5622;50.840;4.948;2024-02-14T10:15:00;11.20;99.90
11136;DHT22;5622;50.840;4.948;2024-02-14T10:17:28;11.20;99.90
11136;DHT22;5622;50.840;4.948;2024-02-14T10:19:56;11.20;99.90
11136;DHT22;5622;50.840;4.948;2024-02-14T10:22:24;11.20;99.90
11136;DHT22;5622;50.840;4.948;2024-02-14T10:24:51;11.20;99.90
11136;DHT22;5622;50.840;4.948;2024-02-14T10:27:20;11.30;99.90
11136;DHT22;5622;50.840;4.948;2024-02-14T10:29:48;11.30;99.90
11136;DHT22;5622;50.840;4.948;2024-02-14T10:32:15;11.30;99.90
11136;DHT22;5622;50.840;4.948;2024-02-14T10:34:44;11.30;99.90
11136;DHT22;5622;50.840;4.948;2024-02-14T10:37:14;11.20;99.90
11136;DHT22;5622;50.840;4.948;2024-02-14T10:39:43;11.30;99.90
11136;DHT22;5622;50.840;4.948;2024-02-14T10:42:12;11.30;99.90
11136;DHT22;5622;50.840;4.948;2024-02-14T10:44:42;11.30;99.90
11136;DHT22;5622;50.840;4.948;2024-02-14T10:47:11;11.30;99.90
11136;DHT22;5622;50.840;4.948;2024-02-14T10:49:42;11.20;99.90
11136;DHT22;5622;50.840;4.948;2024-02-14T10:52:10;11.30;99.90
11136;DHT22;5622;50.840;4.948;2024-02-14T10:54:37;11.30;99.90
11136;DHT22;5622;50.840;4.948;2024-02-14T10:57:06;11.30;99.90
11136;DHT22;5622;50.840;4.948;2024-02-14T10:59:41;11.30;99.90
11136;DHT22;5622;50.840;4.948;2024-02-14T11:02:10;11.40;99.90
11136;DHT22;5622;50.840;4.948;2024-02-14T11:04:38;11.40;99.90
11136;DHT22;5622;50.840;4.948;2024-02-14T11:07:09;11.40;99.90
11136;DHT22;5622;50.840;4.948;2024-02-14T11:09:39;11.40;99.90
11136;DHT22;5622;50.840;4.948;2024-02-14T11:12:07;11.40;99.90
11136;DHT22;5622;50.840;4.948;2024-02-14T11:14:36;11.40;99.90
11136;DHT22;5622;50.840;4.948;2024-02-14T11:17:09;11.40;99.90
11136;DHT22;5622;50.840;4.948;2024-02-14T11:19:36;11.40;99.90
11136;DHT22;5622;50.840;4.948;2024-02-14T11:22:18;11.50;99.90
11136;DHT22;5622;50.840;4.948;2024-02-14T11:24:46;11.60;99.90
11136;DHT22;5622;50.840;4.948;2024-02-14T11:27:13;11.50;99.90
11136;DHT22;5622;50.840;4.948;2024-02-14T11:29:52;11.50;99.90
11136;DHT22;5622;50.840;4.948;2024-02-14T11:32:22;11.50;99.90
11136;DHT22;5622;50.840;4.948;2024-02-14T11:34:56;11.60;99.90
11136;DHT22;5622;50.840;4.948;2024-02-14T11:37:27;11.60;99.90
11136;DHT22;5622;50.840;4.948;2024-02-14T11:39:55;11.60;99.90
11136;DHT22;5622;50.840;4.948;2024-02-14T11:42:23;11.60;99.90
11136;DHT22;5622;50.840;4.948;2024-02-14T11:44:51;11.60;99.90
11136;DHT22;5622;50.840;4.948;2024-02-14T11:47:19;11.60;99.90
11136;DHT22;5622;50.840;4.948;2024-02-14T11:49:47;11.60;99.90
11136;DHT22;5622;50.840;4.948;2024-02-14T11:52:14;11.60;99.90
11136;DHT22;5622;50.840;4.948;2024-02-14T11:54:46;11.60;99.90
11136;DHT22;5622;50.840;4.948;2024-02-14T11:57:17;11.60;99.90
11136;DHT22;5622;50.840;4.948;2024-02-14T11:59:48;11.60;99.90
11136;DHT22;5622;50.840;4.948;2024-02-14T12:02:19;11.70;99.90
11136;DHT22;5622;50.840;4.948;2024-02-14T12:04:47;11.60;99.90
11136;DHT22;5622;50.840;4.948;2024-02-14T12:07:16;11.70;99.90
11136;DHT22;5622;50.840;4.948;2024-02-14T12:09:44;11.70;99.90
11136;DHT22;5622;50.840;4.948;2024-02-14T12:12:11;11.70;99.90
11136;DHT22;5622;50.840;4.948;2024-02-14T12:14:38;11.70;99.90
11136;DHT22;5622;50.840;4.948;2024-02-14T12:17:05;11.70;99.90
11136;DHT22;5622;50.840;4.948;2024-02-14T12:19:35;11.70;99.90
11136;DHT22;5622;50.840;4.948;2024-02-14T12:22:09;11.80;99.90
11136;DHT22;5622;50.840;4.948;2024-02-14T12:24:37;11.80;99.90
11136;DHT22;5622;50.840;4.948;2024-02-14T12:27:05;11.80;99.90
11136;DHT22;5622;50.840;4.948;2024-02-14T12:29:35;11.80;99.90
11136;DHT22;5622;50.840;4.948;2024-02-14T12:32:05;11.80;99.90
11136;DHT22;5622;50.840;4.948;2024-02-14T12:34:34;11.80;99.90
11136;DHT22;5622;50.840;4.948;2024-02-14T12:37:03;11.90;99.90
11136;DHT22;5622;50.840;4.948;2024-02-14T12:39:31;11.90;99.90
11136;DHT22;5622;50.840;4.948;2024-02-14T12:41:58;11.90;99.90
11136;DHT22;5622;50.840;4.948;2024-02-14T12:44:28;12.00;99.90
11136;DHT22;5622;50.840;4.948;2024-02-14T12:46:55;12.00;99.90
11136;DHT22;5622;50.840;4.948;2024-02-14T12:49:22;12.00;99.90
11136;DHT22;5622;50.840;4.948;2024-02-14T12:51:53;12.00;99.90
11136;DHT22;5622;50.840;4.948;2024-02-14T12:54:23;12.00;99.90
11136;DHT22;5622;50.840;4.948;2024-02-14T12:56:50;12.00;99.90
11136;DHT22;5622;50.840;4.948;2024-02-14T12:59:18;12.10;99.90
11136;DHT22;5622;50.840;4.948;2024-02-14T13:01:45;12.10;99.90
11136;DHT22;5622;50.840;4.948;2024-02-14T13:04:13;11.70;99.90
11136;DHT22;5622;50.840;4.948;2024-02-14T13:06:42;12.10;99.90
11136;DHT22;5622;50.840;4.948;2024-02-14T13:09:10;12.10;99.90
11136;DHT22;5622;50.840;4.948;2024-02-14T13:11:40;12.10;99.90
11136;DHT22;5622;50.840;4.948;2024-02-14T13:14:08;12.10;99.90
11136;DHT22;5622;50.840;4.948;2024-02-14T13:16:35;12.00;99.90
11136;DHT22;5622;50.840;4.948;2024-02-14T13:19:02;12.00;99.90
11136;DHT22;5622;50.840;4.948;2024-02-14T13:21:30;12.10;99.90
11136;DHT22;5622;50.840;4.948;2024-02-14T13:23:59;12.10;99.90
11136;DHT22;5622;50.840;4.948;2024-02-14T13:26:28;12.10;99.90
11136;DHT22;5622;50.840;4.948;2024-02-14T13:28:55;12.10;99.90
11136;DHT22;5622;50.840;4.948;2024-02-14T13:31:22;12.10;99.90
11136;DHT22;5622;50.840;4.948;2024-02-14T13:33:49;12.10;99.90
11136;DHT22;5622;50.840;4.948;2024-02-14T13:36:16;12.10;99.90
11136;DHT22;5622;50.840;4.948;2024-02-14T13:38:43;12.10;99.90
11136;DHT22;5622;50.840;4.948;2024-02-14T13:41:11;12.10;99.90
11136;DHT22;5622;50.840;4.948;2024-02-14T13:43:40;12.10;99.90
11136;DHT22;5622;50.840;4.948;2024-02-14T13:46:08;12.20;99.90
11136;DHT22;5622;50.840;4.948;2024-02-14T13:48:35;12.20;99.90
11136;DHT22;5622;50.840;4.948;2024-02-14T13:51:02;12.20;99.90
11136;DHT22;5622;50.840;4.948;2024-02-14T13:53:29;12.20;99.90
11136;DHT22;5622;50.840;4.948;2024-02-14T13:55:58;12.20;99.90
11136;DHT22;5622;50.840;4.948;2024-02-14T13:58:25;12.10;99.90
11136;DHT22;5622;50.840;4.948;2024-02-14T14:00:55;12.20;99.90
11136;DHT22;5622;50.840;4.948;2024-02-14T14:03:22;12.20;99.90
11136;DHT22;5622;50.840;4.948;2024-02-14T14:05:49;12.20;99.90
11136;DHT22;5622;50.840;4.948;2024-02-14T14:08:16;12.10;99.90
11136;DHT22;5622;50.840;4.948;2024-02-14T14:10:43;12.20;99.90
11136;DHT22;5622;50.840;4.948;2024-02-14T14:13:11;12.10;99.90
11136;DHT22;5622;50.840;4.948;2024-02-14T14:15:39;12.20;99.90
11136;DHT22;5622;50.840;4.948;2024-02-14T14:18:08;12.20;99.90
11136;DHT22;5622;50.840;4.948;2024-02-14T14:20:36;12.20;99.90
11136;DHT22;5622;50.840;4.948;2024-02-14T14:23:04;12.20;99.90
11136;DHT22;5622;50.840;4.948;2024-02-14T14:25:31;12.10;99.90
11136;DHT22;5622;50.840;4.948;2024-02-14T14:27:59;12.20;99.90
11136;DHT22;5622;50.840;4.948;2024-02-14T14:30:26;12.20;99.90
11136;DHT22;5622;50.840;4.948;2024-02-14T14:32:53;12.20;99.90
11136;DHT22;5622;50.840;4.948;2024-02-14T14:35:23;12.20;99.90
11136;DHT22;5622;50.840;4.948;2024-02-14T14:37:50;12.10;99.90
11136;DHT22;5622;50.840;4.948;2024-02-14T14:40:17;12.20;99.90
11136;DHT22;5622;50.840;4.948;2024-02-14T14:42:45;12.10;99.90
11136;DHT22;5622;50.840;4.948;2024-02-14T14:45:12;12.20;99.90
11136;DHT22;5622;50.840;4.948;2024-02-14T14:47:39;12.20;99.90
11136;DHT22;5622;50.840;4.948;2024-02-14T14:50:07;12.20;99.90
11136;DHT22;5622;50.840;4.948;2024-02-14T14:52:35;12.20;99.90
11136;DHT22;5622;50.840;4.948;2024-02-14T14:55:04;12.20;99.90
11136;DHT22;5622;50.840;4.948;2024-02-14T14:57:31;12.20;99.90
11136;DHT22;5622;50.840;4.948;2024-02-14T15:00:00;12.20;99.90
11136;DHT22;5622;50.840;4.948;2024-02-14T15:02:29;12.20;99.90
11136;DHT22;5622;50.840;4.948;2024-02-14T15:04:56;12.20;99.90
11136;DHT22;5622;50.840;4.948;2024-02-14T15:07:23;12.30;99.90
11136;DHT22;5622;50.840;4.948;2024-02-14T15:09:52;12.30;99.90
11136;DHT22;5622;50.840;4.948;2024-02-14T15:12:19;12.30;99.90
11136;DHT22;5622;50.840;4.948;2024-02-14T15:14:51;12.30;99.90
11136;DHT22;5622;50.840;4.948;2024-02-14T15:17:19;12.30;99.90
11136;DHT22;5622;50.840;4.948;2024-02-14T15:19:46;12.30;99.90
11136;DHT22;5622;50.840;4.948;2024-02-14T15:22:13;12.30;99.90
11136;DHT22;5622;50.840;4.948;2024-02-14T15:24:41;12.30;99.90
11136;DHT22;5622;50.840;4.948;2024-02-14T15:27:12;12.30;99.90
11136;DHT22;5622;50.840;4.948;2024-02-14T15:29:46;12.30;99.90
11136;DHT22;5622;50.840;4.948;2024-02-14T15:32:31;12.30;99.90
11136;DHT22;5622;50.840;4.948;2024-02-14T15:35:15;12.40;99.90
11136;DHT22;5622;50.840;4.948;2024-02-14T15:37:42;12.40;99.90
11136;DHT22;5622;50.840;4.948;2024-02-14T15:40:11;12.30;99.90
11136;DHT22;5622;50.840;4.948;2024-02-14T15:42:40;12.40;99.90
11136;DHT22;5622;50.840;4.948;2024-02-14T15:45:08;12.40;99.90
11136;DHT22;5622;50.840;4.948;2024-02-14T15:47:37;12.40;99.90
11136;DHT22;5622;50.840;4.948;2024-02-14T15:50:05;12.40;99.90
11136;DHT22;5622;50.840;4.948;2024-02-14T15:52:33;12.40;99.90
11136;DHT22;5622;50.840;4.948;2024-02-14T15:55:00;12.40;99.90
11136;DHT22;5622;50.840;4.948;2024-02-14T15:57:27;12.40;99.90